Time;durP1;ratioP1;P1;durP2;ratioP2;P2;SDS_P1;SDS_P2;PMS_P1;PMS_P2;Temp;Humidity;BMP_temperature;BMP_pressure;BME280_temperature;BME280_humidity;BME280_pressure;Samples;Min_cycle;Max_cycle;Signal;HPM_P1;HPM_P2
2021/08/04 00:02:25;;;;;;;;;;;27.10;93.60;;;;;;5106574;28;19911;-44
2021/08/04 00:04:51;;;;;;;;;;;27.00;93.50;;;;;;5106798;28;19905;-49
2021/08/04 00:07:17;;;;;;;;;;;27.00;93.60;;;;;;5107008;28;20185;-50
2021/08/04 00:09:44;;;;;;;;;;;27.00;93.60;;;;;;5106515;28;19931;-50
2021/08/04 00:12:10;;;;;;;;;;;27.00;93.60;;;;;;5106674;28;19904;-44
2021/08/04 00:14:37;;;;;;;;;;;27.00;93.60;;;;;;5107058;28;19927;-44
2021/08/04 00:17:03;;;;;;;;;;;27.00;93.60;;;;;;5107131;28;19976;-42
2021/08/04 00:19:29;;;;;;;;;;;27.00;93.50;;;;;;5105497;28;19987;-49
2021/08/04 00:21:56;;;;;;;;;;;27.00;93.60;;;;;;5106255;28;19928;-45
2021/08/04 00:24:22;;;;;;;;;;;27.00;93.60;;;;;;5106382;28;19911;-53
2021/08/04 00:26:51;;;;;;;;;;;27.00;93.70;;;;;;5105105;28;19919;-47
2021/08/04 00:29:18;;;;;;;;;;;27.00;93.60;;;;;;5105139;28;19948;-49
2021/08/04 00:31:44;;;;;;;;;;;27.00;93.50;;;;;;5106331;28;19912;-49
2021/08/04 00:34:10;;;;;;;;;;;27.00;93.60;;;;;;5105801;28;19904;-49
2021/08/04 00:36:36;;;;;;;;;;;26.90;93.50;;;;;;5106552;28;19971;-44
2021/08/04 00:39:03;;;;;;;;;;;27.00;93.50;;;;;;5106162;28;19908;-43
2021/08/04 00:41:36;;;;;;;;;;;26.90;93.40;;;;;;5105891;28;19946;-47
2021/08/04 00:44:02;;;;;;;;;;;26.90;93.50;;;;;;5105866;28;19910;-51
2021/08/04 00:46:28;;;;;;;;;;;26.90;93.40;;;;;;5106227;28;19936;-49
2021/08/04 00:48:54;;;;;;;;;;;26.90;93.40;;;;;;5105695;28;19949;-42
2021/08/04 00:51:21;;;;;;;;;;;26.90;93.40;;;;;;5106350;28;19923;-43
2021/08/04 00:53:47;;;;;;;;;;;26.90;93.40;;;;;;5105256;28;19935;-42
2021/08/04 00:56:13;;;;;;;;;;;26.90;93.50;;;;;;5106745;28;19979;-43
2021/08/04 00:58:41;;;;;;;;;;;26.90;93.60;;;;;;5104333;28;19943;-42
2021/08/04 01:01:11;;;;;;;;;;;26.90;93.60;;;;;;5105821;28;20199;-41
2021/08/04 01:03:45;;;;;;;;;;;26.90;93.70;;;;;;5105574;28;19975;-45
2021/08/04 01:06:24;;;;;;;;;;;26.90;93.70;;;;;;5105395;28;20254;-45
2021/08/04 01:08:59;;;;;;;;;;;26.90;93.80;;;;;;5105425;28;19911;-47
2021/08/04 01:11:34;;;;;;;;;;;26.90;93.80;;;;;;5105744;28;19958;-43
2021/08/04 01:14:03;;;;;;;;;;;26.90;93.90;;;;;;5105169;28;19910;-44
2021/08/04 01:16:32;;;;;;;;;;;26.90;93.90;;;;;;5105705;28;19953;-46
2021/08/04 01:19:02;;;;;;;;;;;26.80;93.90;;;;;;5105207;28;19904;-47
2021/08/04 01:21:38;;;;;;;;;;;26.80;93.90;;;;;;5104854;28;19920;-53
2021/08/04 01:24:11;;;;;;;;;;;26.80;93.80;;;;;;5105147;28;19912;-44
2021/08/04 01:26:42;;;;;;;;;;;26.80;93.90;;;;;;5105335;28;19988;-43
2021/08/04 01:29:10;;;;;;;;;;;26.80;93.80;;;;;;5105104;28;20119;-49
2021/08/04 01:31:37;;;;;;;;;;;26.80;93.80;;;;;;5104172;28;19943;-48
2021/08/04 01:34:04;;;;;;;;;;;26.80;93.70;;;;;;5105126;28;20246;-45
2021/08/04 01:36:31;;;;;;;;;;;26.80;93.70;;;;;;5105584;28;19912;-50
2021/08/04 01:38:58;;;;;;;;;;;26.80;93.70;;;;;;5104839;28;19911;-45
2021/08/04 01:41:24;;;;;;;;;;;26.80;93.80;;;;;;5105757;28;19912;-46
2021/08/04 01:43:51;;;;;;;;;;;26.70;93.80;;;;;;5104871;28;19904;-41
2021/08/04 01:46:18;;;;;;;;;;;26.70;93.60;;;;;;5103897;28;19912;-42
2021/08/04 01:48:44;;;;;;;;;;;26.60;93.60;;;;;;5104719;28;19926;-44
2021/08/04 01:51:11;;;;;;;;;;;26.60;93.70;;;;;;5105074;28;19916;-44
2021/08/04 01:53:40;;;;;;;;;;;26.60;93.60;;;;;;5104837;28;19905;-39
2021/08/04 01:56:07;;;;;;;;;;;26.60;93.80;;;;;;5104226;28;19918;-53
2021/08/04 01:58:34;;;;;;;;;;;26.60;93.80;;;;;;5104781;28;19941;-43
2021/08/04 02:01:00;;;;;;;;;;;26.50;93.80;;;;;;5105215;28;19919;-44
2021/08/04 02:03:26;;;;;;;;;;;26.50;93.80;;;;;;5103495;28;20193;-46
2021/08/04 02:05:53;;;;;;;;;;;26.50;93.90;;;;;;5104347;28;19958;-46
2021/08/04 02:08:24;;;;;;;;;;;26.50;93.90;;;;;;5104883;28;19904;-45
2021/08/04 02:10:53;;;;;;;;;;;26.40;93.80;;;;;;5104430;28;19916;-43
2021/08/04 02:13:38;;;;;;;;;;;26.50;93.90;;;;;;5104639;28;19927;-46
2021/08/04 02:16:18;;;;;;;;;;;26.50;93.90;;;;;;5104582;28;19918;-47
2021/08/04 02:18:46;;;;;;;;;;;26.40;93.90;;;;;;5105108;28;19942;-44
2021/08/04 02:21:13;;;;;;;;;;;26.40;94.00;;;;;;5104369;28;19943;-47
2021/08/04 02:23:39;;;;;;;;;;;26.40;94.00;;;;;;5104310;28;19911;-50
2021/08/04 02:26:12;;;;;;;;;;;26.40;94.10;;;;;;5104816;28;19992;-47
2021/08/04 02:28:39;;;;;;;;;;;26.50;94.00;;;;;;5104407;28;19911;-44
2021/08/04 02:31:06;;;;;;;;;;;26.40;94.00;;;;;;5104427;28;19912;-44
2021/08/04 02:33:33;;;;;;;;;;;26.40;94.10;;;;;;5104377;28;19939;-42
2021/08/04 02:35:59;;;;;;;;;;;26.40;94.00;;;;;;5104606;28;20042;-46
2021/08/04 02:38:26;;;;;;;;;;;26.30;94.10;;;;;;5104300;28;19914;-44
2021/08/04 02:40:52;;;;;;;;;;;26.40;94.20;;;;;;5104672;28;19974;-44
2021/08/04 02:43:19;;;;;;;;;;;26.40;94.10;;;;;;5104647;28;19908;-51
2021/08/04 02:45:46;;;;;;;;;;;26.30;94.10;;;;;;5102955;28;19908;-51
2021/08/04 02:48:13;;;;;;;;;;;26.30;94.30;;;;;;5104343;28;19908;-45
2021/08/04 02:50:43;;;;;;;;;;;26.30;94.30;;;;;;5104340;28;19920;-45
2021/08/04 02:53:10;;;;;;;;;;;26.30;94.30;;;;;;5103920;28;19915;-44
2021/08/04 02:55:36;;;;;;;;;;;26.20;94.40;;;;;;5104217;28;19916;-49
2021/08/04 02:58:02;;;;;;;;;;;26.30;94.30;;;;;;5102869;28;19994;-45
2021/08/04 03:00:28;;;;;;;;;;;26.30;94.20;;;;;;5104199;28;19912;-43
2021/08/04 03:02:54;;;;;;;;;;;26.30;94.00;;;;;;5104047;28;19908;-43
2021/08/04 03:05:21;;;;;;;;;;;26.30;94.00;;;;;;5102907;28;19937;-44
2021/08/04 03:07:47;;;;;;;;;;;26.30;94.10;;;;;;5103722;28;19944;-44
2021/08/04 03:10:13;;;;;;;;;;;26.30;94.10;;;;;;5103994;28;19922;-45
2021/08/04 03:12:39;;;;;;;;;;;26.30;94.30;;;;;;5103981;28;19945;-45
2021/08/04 03:15:06;;;;;;;;;;;26.30;94.20;;;;;;5103890;28;19909;-42
2021/08/04 03:17:32;;;;;;;;;;;26.30;94.20;;;;;;5105359;28;19917;-43
2021/08/04 03:19:58;;;;;;;;;;;26.30;94.20;;;;;;5107338;28;19935;-43
2021/08/04 03:22:24;;;;;;;;;;;26.30;94.10;;;;;;5107740;28;19938;-45
2021/08/04 03:24:50;;;;;;;;;;;26.30;94.20;;;;;;5107705;28;20208;-48
2021/08/04 03:27:17;;;;;;;;;;;26.20;94.10;;;;;;5107905;28;19904;-44
2021/08/04 03:29:43;;;;;;;;;;;26.30;93.90;;;;;;5107206;28;19908;-46
2021/08/04 03:32:09;;;;;;;;;;;26.20;93.80;;;;;;5107210;28;19904;-44
2021/08/04 03:34:35;;;;;;;;;;;26.20;93.90;;;;;;5107361;28;19908;-48
2021/08/04 03:37:01;;;;;;;;;;;26.30;94.20;;;;;;5107190;28;19912;-50
2021/08/04 03:39:27;;;;;;;;;;;26.30;93.90;;;;;;5107134;28;19911;-43
2021/08/04 03:41:54;;;;;;;;;;;26.30;93.90;;;;;;5108202;28;19912;-52
2021/08/04 03:44:20;;;;;;;;;;;26.20;94.00;;;;;;5107185;28;19904;-52
2021/08/04 03:46:49;;;;;;;;;;;26.20;93.80;;;;;;5107642;28;20145;-44
2021/08/04 03:49:15;;;;;;;;;;;26.20;93.90;;;;;;5106655;28;19927;-45
2021/08/04 03:51:42;;;;;;;;;;;26.20;93.90;;;;;;5107456;28;19912;-44
2021/08/04 03:54:09;;;;;;;;;;;26.20;93.90;;;;;;5106823;28;19956;-47
2021/08/04 03:56:35;;;;;;;;;;;26.20;94.00;;;;;;5105717;28;19923;-44
2021/08/04 03:59:01;;;;;;;;;;;26.30;94.10;;;;;;5106798;28;20185;-47
2021/08/04 04:01:27;;;;;;;;;;;26.30;94.00;;;;;;5107033;28;19912;-45
2021/08/04 04:03:53;;;;;;;;;;;26.30;94.00;;;;;;5106736;28;19904;-46
2021/08/04 04:06:20;;;;;;;;;;;26.30;93.90;;;;;;5105626;28;19916;-55
2021/08/04 04:08:46;;;;;;;;;;;26.30;94.00;;;;;;5105813;28;19932;-53
2021/08/04 04:11:12;;;;;;;;;;;26.30;93.90;;;;;;5106574;28;19916;-42
2021/08/04 04:13:38;;;;;;;;;;;26.30;93.90;;;;;;5106497;28;19949;-45
2021/08/04 04:16:04;;;;;;;;;;;26.30;93.90;;;;;;5105977;28;19914;-47
2021/08/04 04:18:30;;;;;;;;;;;26.30;93.90;;;;;;5104869;28;19976;-43
2021/08/04 04:20:57;;;;;;;;;;;26.30;93.80;;;;;;5106075;28;20116;-47
2021/08/04 04:23:23;;;;;;;;;;;26.30;93.80;;;;;;5106257;28;19904;-42
2021/08/04 04:25:49;;;;;;;;;;;26.30;93.80;;;;;;5106049;28;19979;-51
2021/08/04 04:28:15;;;;;;;;;;;26.30;93.60;;;;;;5106069;28;19912;-49
2021/08/04 04:30:41;;;;;;;;;;;26.30;93.60;;;;;;5106014;28;19923;-45
2021/08/04 04:33:07;;;;;;;;;;;26.30;93.70;;;;;;5105954;28;19904;-42
2021/08/04 04:35:34;;;;;;;;;;;26.30;93.60;;;;;;5105968;28;19912;-45
2021/08/04 04:38:00;;;;;;;;;;;26.30;93.50;;;;;;5105948;28;19977;-49
2021/08/04 04:40:26;;;;;;;;;;;26.30;93.40;;;;;;5105626;28;19912;-46
2021/08/04 04:42:52;;;;;;;;;;;26.30;93.40;;;;;;5105784;28;19987;-43
2021/08/04 04:45:18;;;;;;;;;;;26.30;93.40;;;;;;5105754;28;19927;-51
2021/08/04 04:47:44;;;;;;;;;;;26.30;93.40;;;;;;5105746;28;19904;-48
2021/08/04 04:50:11;;;;;;;;;;;26.30;93.40;;;;;;5105721;28;19916;-44
2021/08/04 04:52:41;;;;;;;;;;;26.30;93.30;;;;;;5105572;28;19932;-46
2021/08/04 04:55:08;;;;;;;;;;;26.30;93.30;;;;;;5105348;28;19985;-51
2021/08/04 04:57:34;;;;;;;;;;;26.30;93.40;;;;;;5105906;28;19951;-53
2021/08/04 05:00:00;;;;;;;;;;;26.30;93.40;;;;;;5105392;28;19912;-51
2021/08/04 05:02:27;;;;;;;;;;;26.30;93.40;;;;;;5105074;28;19949;-47
2021/08/04 05:04:53;;;;;;;;;;;26.30;93.50;;;;;;5102520;28;19932;-51
2021/08/04 05:07:19;;;;;;;;;;;26.30;93.50;;;;;;5105135;28;19926;-46
2021/08/04 05:09:45;;;;;;;;;;;26.30;93.80;;;;;;5104422;28;19912;-46
2021/08/04 05:12:11;;;;;;;;;;;26.30;93.60;;;;;;5104970;28;20006;-48
2021/08/04 05:14:40;;;;;;;;;;;26.30;93.60;;;;;;5104997;28;19908;-46
2021/08/04 05:17:10;;;;;;;;;;;26.20;93.60;;;;;;5104798;28;19954;-50
2021/08/04 05:19:36;;;;;;;;;;;26.20;93.70;;;;;;5102347;28;19930;-45
2021/08/04 05:22:04;;;;;;;;;;;26.20;93.70;;;;;;5104914;28;19916;-51
2021/08/04 05:24:30;;;;;;;;;;;26.20;93.80;;;;;;5104438;28;19963;-52
2021/08/04 05:26:56;;;;;;;;;;;26.20;93.80;;;;;;5103675;28;20096;-52
2021/08/04 05:29:23;;;;;;;;;;;26.30;93.90;;;;;;5105319;28;19904;-47
2021/08/04 05:31:49;;;;;;;;;;;26.20;93.90;;;;;;5105594;28;19919;-46
2021/08/04 05:34:16;;;;;;;;;;;26.30;94.10;;;;;;5105358;28;19904;-46
2021/08/04 05:36:43;;;;;;;;;;;26.20;94.10;;;;;;5105558;28;19935;-45
2021/08/04 05:39:09;;;;;;;;;;;26.20;94.20;;;;;;5105330;28;19911;-50
2021/08/04 05:41:36;;;;;;;;;;;26.20;94.30;;;;;;5104864;28;19951;-47
2021/08/04 05:44:02;;;;;;;;;;;26.20;94.30;;;;;;5104844;28;19904;-44
2021/08/04 05:46:28;;;;;;;;;;;26.20;94.50;;;;;;5105201;28;19948;-49
2021/08/04 05:48:54;;;;;;;;;;;26.20;94.50;;;;;;5104692;28;19904;-43
2021/08/04 05:51:20;;;;;;;;;;;26.20;94.50;;;;;;5104995;28;20126;-47
2021/08/04 05:53:47;;;;;;;;;;;26.20;94.50;;;;;;5103579;28;20078;-42
2021/08/04 05:56:13;;;;;;;;;;;26.20;94.40;;;;;;5103598;28;19912;-46
2021/08/04 05:58:39;;;;;;;;;;;26.20;94.20;;;;;;5104716;28;19997;-44
2021/08/04 06:01:05;;;;;;;;;;;26.20;94.30;;;;;;5105001;28;19912;-43
2021/08/04 06:03:31;;;;;;;;;;;26.10;94.30;;;;;;5104642;28;19941;-43
2021/08/04 06:05:57;;;;;;;;;;;26.20;94.40;;;;;;5104820;28;19912;-43
2021/08/04 06:08:24;;;;;;;;;;;26.10;94.50;;;;;;5104691;28;19904;-46
2021/08/04 06:10:50;;;;;;;;;;;26.10;94.50;;;;;;5104426;28;20183;-45
2021/08/04 06:13:16;;;;;;;;;;;26.10;94.60;;;;;;5104590;28;19904;-44
2021/08/04 06:15:42;;;;;;;;;;;26.10;94.80;;;;;;5104795;28;19935;-47
2021/08/04 06:18:08;;;;;;;;;;;26.10;94.80;;;;;;5104325;28;20070;-42
2021/08/04 06:20:34;;;;;;;;;;;26.00;94.80;;;;;;5104392;28;19999;-49
2021/08/04 06:23:00;;;;;;;;;;;26.00;94.80;;;;;;5104356;28;19904;-52
2021/08/04 06:25:26;;;;;;;;;;;26.00;94.80;;;;;;5104506;28;19918;-48
2021/08/04 06:27:54;;;;;;;;;;;26.00;94.80;;;;;;5104280;28;19912;-43
2021/08/04 06:30:21;;;;;;;;;;;25.90;94.80;;;;;;5104349;28;19923;-54
2021/08/04 06:32:47;;;;;;;;;;;26.00;94.80;;;;;;5104329;28;19911;-42
2021/08/04 06:35:13;;;;;;;;;;;26.00;94.90;;;;;;5103038;28;19921;-47
2021/08/04 06:37:40;;;;;;;;;;;26.00;95.00;;;;;;5104423;28;20215;-47
2021/08/04 06:40:06;;;;;;;;;;;25.90;95.00;;;;;;5104378;28;19975;-49
2021/08/04 06:42:32;;;;;;;;;;;25.90;95.00;;;;;;5104261;28;20197;-50
2021/08/04 06:44:58;;;;;;;;;;;25.90;95.00;;;;;;5104286;28;19944;-45
2021/08/04 06:47:24;;;;;;;;;;;25.90;95.10;;;;;;5104545;28;19911;-46
2021/08/04 06:49:51;;;;;;;;;;;25.90;95.00;;;;;;5104022;28;19923;-48
2021/08/04 06:52:17;;;;;;;;;;;25.90;94.90;;;;;;5105422;28;19941;-45
2021/08/04 06:54:43;;;;;;;;;;;25.90;94.90;;;;;;5108217;28;20170;-45
2021/08/04 06:57:09;;;;;;;;;;;25.90;95.00;;;;;;5107944;28;19904;-52
2021/08/04 06:59:35;;;;;;;;;;;25.90;94.90;;;;;;5108007;28;19907;-42
2021/08/04 07:02:02;;;;;;;;;;;25.90;94.90;;;;;;5108022;28;19943;-46
2021/08/04 07:04:29;;;;;;;;;;;25.90;95.00;;;;;;5107760;28;19905;-51
2021/08/04 07:06:59;;;;;;;;;;;25.90;94.90;;;;;;5108284;28;19998;-44
2021/08/04 07:09:26;;;;;;;;;;;25.90;94.90;;;;;;5107868;28;19927;-44
2021/08/04 07:11:52;;;;;;;;;;;25.90;95.00;;;;;;5107996;28;20192;-47
2021/08/04 07:14:19;;;;;;;;;;;25.90;95.00;;;;;;5108038;28;19911;-46
2021/08/04 07:16:45;;;;;;;;;;;25.90;95.00;;;;;;5108602;28;19912;-48
2021/08/04 07:19:12;;;;;;;;;;;25.90;95.00;;;;;;5107467;28;19911;-51
2021/08/04 07:21:38;;;;;;;;;;;25.80;95.10;;;;;;5107297;28;19928;-55
2021/08/04 07:24:05;;;;;;;;;;;25.80;95.10;;;;;;5107468;28;19904;-45
2021/08/04 07:26:31;;;;;;;;;;;25.80;95.20;;;;;;5107909;28;19912;-47
2021/08/04 07:28:58;;;;;;;;;;;25.80;95.10;;;;;;5107367;28;20249;-43
2021/08/04 07:31:24;;;;;;;;;;;25.80;95.10;;;;;;5107658;28;19916;-45
2021/08/04 07:33:51;;;;;;;;;;;25.80;95.10;;;;;;5107432;28;19904;-52
2021/08/04 07:36:17;;;;;;;;;;;25.80;95.20;;;;;;5107488;28;20010;-52
2021/08/04 07:38:43;;;;;;;;;;;25.80;95.20;;;;;;5107202;28;19904;-48
2021/08/04 07:41:10;;;;;;;;;;;25.70;95.20;;;;;;5107519;28;20085;-48
2021/08/04 07:43:36;;;;;;;;;;;25.70;95.10;;;;;;5107276;28;19904;-46
2021/08/04 07:46:02;;;;;;;;;;;25.80;95.10;;;;;;5107431;28;19919;-45
2021/08/04 07:48:29;;;;;;;;;;;25.70;95.10;;;;;;5107082;28;19911;-44
2021/08/04 07:50:56;;;;;;;;;;;25.70;95.10;;;;;;5107033;28;19990;-48
2021/08/04 07:53:22;;;;;;;;;;;25.70;95.10;;;;;;5107355;28;19997;-46
2021/08/04 07:55:48;;;;;;;;;;;25.70;95.00;;;;;;5107252;28;19912;-43
2021/08/04 07:58:15;;;;;;;;;;;25.70;95.00;;;;;;5106759;28;20134;-47
2021/08/04 08:00:41;;;;;;;;;;;25.70;95.00;;;;;;5107234;28;20070;-48
2021/08/04 08:03:07;;;;;;;;;;;25.70;95.00;;;;;;5106418;28;20120;-46
2021/08/04 08:05:33;;;;;;;;;;;25.70;95.00;;;;;;5106802;28;19912;-49
2021/08/04 08:08:08;;;;;;;;;;;25.70;95.00;;;;;;5106753;28;19904;-49
2021/08/04 08:10:39;;;;;;;;;;;25.70;95.00;;;;;;5106590;28;19916;-44
2021/08/04 08:13:05;;;;;;;;;;;25.70;95.00;;;;;;5106424;28;19904;-46
2021/08/04 08:15:32;;;;;;;;;;;25.70;95.00;;;;;;5106787;28;19912;-45
2021/08/04 08:17:58;;;;;;;;;;;25.70;95.10;;;;;;5106582;28;19939;-49
2021/08/04 08:20:24;;;;;;;;;;;25.70;95.20;;;;;;5106095;28;19942;-43
2021/08/04 08:22:51;;;;;;;;;;;25.70;95.30;;;;;;5106454;28;19911;-45
2021/08/04 08:25:17;;;;;;;;;;;25.70;95.20;;;;;;5106447;28;19919;-47
2021/08/04 08:27:45;;;;;;;;;;;25.70;95.30;;;;;;5106101;28;19908;-47
2021/08/04 08:30:12;;;;;;;;;;;25.70;95.30;;;;;;5106205;28;19983;-45
2021/08/04 08:32:38;;;;;;;;;;;25.70;95.30;;;;;;5106198;28;19904;-48
2021/08/04 08:35:05;;;;;;;;;;;25.70;95.20;;;;;;5106014;28;19915;-43
2021/08/04 08:37:32;;;;;;;;;;;25.70;95.20;;;;;;5106127;28;19908;-43
2021/08/04 08:39:58;;;;;;;;;;;25.70;95.40;;;;;;5106017;28;20131;-46
2021/08/04 08:42:24;;;;;;;;;;;25.60;95.20;;;;;;5105930;28;20231;-43
2021/08/04 08:44:50;;;;;;;;;;;25.60;95.20;;;;;;5106019;28;19926;-44
2021/08/04 08:47:16;;;;;;;;;;;25.60;95.20;;;;;;5105918;28;19912;-47
2021/08/04 08:49:43;;;;;;;;;;;25.60;95.20;;;;;;5105792;28;20138;-48
2021/08/04 08:52:10;;;;;;;;;;;25.60;95.20;;;;;;5105817;28;19927;-50
2021/08/04 08:54:36;;;;;;;;;;;25.70;95.20;;;;;;5105678;28;20188;-54
2021/08/04 08:57:02;;;;;;;;;;;25.60;95.20;;;;;;5105647;28;19975;-49
2021/08/04 08:59:29;;;;;;;;;;;25.60;95.20;;;;;;5105913;28;19927;-47
2021/08/04 09:01:55;;;;;;;;;;;25.60;95.20;;;;;;5106111;28;20215;-45
2021/08/04 09:04:21;;;;;;;;;;;25.60;95.20;;;;;;5105669;28;19908;-43
2021/08/04 09:06:50;;;;;;;;;;;25.60;95.20;;;;;;5105791;28;19915;-46
2021/08/04 09:09:23;;;;;;;;;;;25.60;95.20;;;;;;5105644;28;19911;-44
2021/08/04 09:11:53;;;;;;;;;;;25.60;95.20;;;;;;5105644;28;19908;-51
2021/08/04 09:14:29;;;;;;;;;;;25.60;95.20;;;;;;5104918;28;19950;-43
2021/08/04 09:17:06;;;;;;;;;;;25.60;95.20;;;;;;5105714;28;19912;-54
2021/08/04 09:19:33;;;;;;;;;;;25.60;95.20;;;;;;5105334;28;19908;-48
2021/08/04 09:22:14;;;;;;;;;;;25.60;95.20;;;;;;5105063;28;19990;-48
2021/08/04 09:24:55;;;;;;;;;;;25.50;95.20;;;;;;5104952;28;19908;-46
2021/08/04 09:27:38;;;;;;;;;;;25.50;95.20;;;;;;5105092;28;19936;-45
2021/08/04 09:30:04;;;;;;;;;;;25.60;95.30;;;;;;5105026;28;19916;-49
2021/08/04 09:32:31;;;;;;;;;;;25.50;95.30;;;;;;5105136;28;19908;-49
2021/08/04 09:35:05;;;;;;;;;;;25.50;95.30;;;;;;5104924;28;19946;-44
2021/08/04 09:37:32;;;;;;;;;;;25.50;95.30;;;;;;5105059;28;19904;-44
2021/08/04 09:39:58;;;;;;;;;;;25.60;95.30;;;;;;5104986;28;19919;-45
2021/08/04 09:42:41;;;;;;;;;;;25.50;95.20;;;;;;5104751;28;19904;-54
2021/08/04 09:45:08;;;;;;;;;;;25.50;95.30;;;;;;5104858;28;19983;-49
2021/08/04 09:47:34;;;;;;;;;;;25.50;95.30;;;;;;5105054;28;19942;-42
2021/08/04 09:50:01;;;;;;;;;;;25.50;95.30;;;;;;5104700;28;19916;-45
2021/08/04 09:52:30;;;;;;;;;;;25.50;95.30;;;;;;5104774;28;19904;-47
2021/08/04 09:55:10;;;;;;;;;;;25.50;95.30;;;;;;5104593;28;19912;-41
2021/08/04 09:57:43;;;;;;;;;;;25.50;95.40;;;;;;5104556;28;19942;-46
2021/08/04 10:00:13;;;;;;;;;;;25.50;95.40;;;;;;5104838;28;19920;-50
2021/08/04 10:02:40;;;;;;;;;;;25.50;95.30;;;;;;5104666;28;19915;-45
2021/08/04 10:05:22;;;;;;;;;;;25.50;95.40;;;;;;5103405;28;19919;-43
2021/08/04 10:08:02;;;;;;;;;;;25.50;95.40;;;;;;5104424;28;19979;-47
2021/08/04 10:10:35;;;;;;;;;;;25.50;95.40;;;;;;5104415;28;19924;-49
2021/08/04 10:13:02;;;;;;;;;;;25.50;95.50;;;;;;5104314;28;19977;-42
2021/08/04 10:15:30;;;;;;;;;;;25.50;95.50;;;;;;5104747;28;19962;-49
2021/08/04 10:17:57;;;;;;;;;;;25.50;95.50;;;;;;5104427;28;19931;-49
2021/08/04 10:20:24;;;;;;;;;;;25.50;95.50;;;;;;5102993;28;19920;-55
2021/08/04 10:22:51;;;;;;;;;;;25.40;95.40;;;;;;5104424;28;19962;-49
2021/08/04 10:25:18;;;;;;;;;;;25.50;95.50;;;;;;5104646;28;19912;-50
2021/08/04 10:27:45;;;;;;;;;;;25.50;95.40;;;;;;5108022;28;19911;-53
2021/08/04 10:30:12;;;;;;;;;;;25.50;95.40;;;;;;5108785;28;19954;-51
2021/08/04 10:32:38;;;;;;;;;;;25.40;95.40;;;;;;5108479;28;19911;-51
2021/08/04 10:35:05;;;;;;;;;;;25.40;95.40;;;;;;5108434;28;19934;-51
2021/08/04 10:37:32;;;;;;;;;;;25.40;95.40;;;;;;5108396;28;19904;-43
2021/08/04 10:39:59;;;;;;;;;;;25.40;95.40;;;;;;5108411;28;19919;-52
2021/08/04 10:42:41;;;;;;;;;;;25.40;95.40;;;;;;5108281;28;19911;-43
2021/08/04 10:45:22;;;;;;;;;;;25.40;95.40;;;;;;5108307;28;19912;-56
2021/08/04 10:47:49;;;;;;;;;;;25.40;95.40;;;;;;5108146;28;19904;-43
2021/08/04 10:50:15;;;;;;;;;;;25.40;95.40;;;;;;5108222;28;19923;-42
2021/08/04 10:52:57;;;;;;;;;;;25.40;95.40;;;;;;5108216;28;19927;-48
2021/08/04 10:55:24;;;;;;;;;;;25.40;95.50;;;;;;5108657;28;19975;-45
2021/08/04 10:58:05;;;;;;;;;;;25.40;95.40;;;;;;5108046;28;20288;-46
2021/08/04 11:00:33;;;;;;;;;;;25.40;95.40;;;;;;5108292;28;19929;-45
2021/08/04 11:02:59;;;;;;;;;;;25.40;95.30;;;;;;5107880;28;19911;-47
2021/08/04 11:05:25;;;;;;;;;;;25.30;95.40;;;;;;5108151;28;19912;-45
2021/08/04 11:08:10;;;;;;;;;;;25.30;95.30;;;;;;5108012;28;19904;-46
2021/08/04 11:10:37;;;;;;;;;;;25.30;95.30;;;;;;5107993;28;19968;-47
2021/08/04 11:13:03;;;;;;;;;;;25.30;95.30;;;;;;5107857;28;19911;-49
2021/08/04 11:15:30;;;;;;;;;;;25.30;95.30;;;;;;5107715;28;19918;-50
2021/08/04 11:18:06;;;;;;;;;;;25.30;95.30;;;;;;5108065;28;19911;-52
2021/08/04 11:20:35;;;;;;;;;;;25.30;95.30;;;;;;5107632;28;19981;-47
2021/08/04 11:23:03;;;;;;;;;;;25.30;95.30;;;;;;5107163;28;19960;-52
2021/08/04 11:25:35;;;;;;;;;;;25.30;95.50;;;;;;5107759;28;19939;-46
2021/08/04 11:28:06;;;;;;;;;;;25.30;95.50;;;;;;5107806;28;19915;-45
2021/08/04 11:30:40;;;;;;;;;;;25.30;95.50;;;;;;5107659;28;19986;-46
2021/08/04 11:33:19;;;;;;;;;;;25.30;95.50;;;;;;5106165;28;20103;-50
2021/08/04 11:36:04;;;;;;;;;;;25.30;95.60;;;;;;5107726;28;19908;-44
2021/08/04 11:38:37;;;;;;;;;;;25.30;95.60;;;;;;5106604;28;19940;-47
2021/08/04 11:41:12;;;;;;;;;;;25.30;95.60;;;;;;5107438;28;19912;-46
2021/08/04 11:43:38;;;;;;;;;;;25.30;95.60;;;;;;5106795;28;19988;-52
2021/08/04 11:46:04;;;;;;;;;;;25.30;95.60;;;;;;5089268;28;19981;-43
2021/08/04 11:48:49;;;;;;;;;;;25.30;95.70;;;;;;5086975;28;19905;-45
2021/08/04 11:51:16;;;;;;;;;;;25.30;95.80;;;;;;5087917;28;19920;-43
2021/08/04 11:53:43;;;;;;;;;;;25.30;95.80;;;;;;5088426;28;19950;-40
2021/08/04 11:56:10;;;;;;;;;;;25.30;95.80;;;;;;5085538;28;19952;-47
2021/08/04 11:58:36;;;;;;;;;;;25.20;95.80;;;;;;5089558;28;19915;-43
2021/08/04 12:01:15;;;;;;;;;;;25.20;95.70;;;;;;5106870;28;19912;-47
2021/08/04 12:03:41;;;;;;;;;;;25.20;95.80;;;;;;5106838;28;19948;-48
2021/08/04 12:06:16;;;;;;;;;;;25.20;96.00;;;;;;5107047;28;19912;-45
2021/08/04 12:08:43;;;;;;;;;;;25.20;96.00;;;;;;5106630;28;19970;-42
2021/08/04 12:11:09;;;;;;;;;;;25.20;96.00;;;;;;5106537;28;19920;-42
2021/08/04 12:13:36;;;;;;;;;;;25.20;95.90;;;;;;5105632;28;19911;-45
2021/08/04 12:16:02;;;;;;;;;;;25.20;96.10;;;;;;5104937;28;19916;-43
2021/08/04 12:18:29;;;;;;;;;;;25.20;96.00;;;;;;5106632;28;19980;-46
2021/08/04 12:20:55;;;;;;;;;;;25.20;96.00;;;;;;5106750;28;19920;-44
2021/08/04 12:23:23;;;;;;;;;;;25.10;95.90;;;;;;5106322;28;20275;-48
2021/08/04 12:25:59;;;;;;;;;;;25.10;96.00;;;;;;5106904;28;19912;-44
2021/08/04 12:28:32;;;;;;;;;;;25.20;96.00;;;;;;5106491;28;20100;-42
2021/08/04 12:30:58;;;;;;;;;;;25.10;96.10;;;;;;5107001;28;19916;-49
2021/08/04 12:33:34;;;;;;;;;;;25.10;96.20;;;;;;5106733;28;19927;-44
2021/08/04 12:38:27;;;;;;;;;;;25.10;96.20;;;;;;5106154;28;20192;-44
2021/08/04 12:40:55;;;;;;;;;;;25.10;96.30;;;;;;5106322;28;19939;-43
2021/08/04 12:43:28;;;;;;;;;;;25.10;96.20;;;;;;5106087;28;19904;-41
2021/08/04 12:45:55;;;;;;;;;;;25.10;96.30;;;;;;5106304;28;20188;-41
2021/08/04 12:48:34;;;;;;;;;;;25.10;96.40;;;;;;5105958;28;19904;-44
2021/08/04 12:51:01;;;;;;;;;;;25.10;96.30;;;;;;5105063;28;19916;-52
2021/08/04 12:53:34;;;;;;;;;;;25.10;96.30;;;;;;5105948;28;19904;-46
2021/08/04 12:56:02;;;;;;;;;;;25.20;96.50;;;;;;5106094;28;20181;-47
2021/08/04 12:58:48;;;;;;;;;;;25.10;96.40;;;;;;5105922;28;19953;-47
2021/08/04 13:01:19;;;;;;;;;;;25.20;96.50;;;;;;5105865;28;20153;-54
2021/08/04 13:03:45;;;;;;;;;;;25.20;96.40;;;;;;5104239;28;20196;-43
2021/08/04 13:06:11;;;;;;;;;;;25.20;96.40;;;;;;5105000;28;19954;-45
2021/08/04 13:08:38;;;;;;;;;;;25.20;96.50;;;;;;5105663;28;19905;-51
2021/08/04 13:11:04;;;;;;;;;;;25.30;96.30;;;;;;5104163;28;19928;-48
2021/08/04 13:13:48;;;;;;;;;;;25.30;96.30;;;;;;5105551;28;19967;-43
2021/08/04 13:16:31;;;;;;;;;;;25.30;96.30;;;;;;5104436;28;19912;-47
2021/08/04 13:18:57;;;;;;;;;;;25.30;96.20;;;;;;5105419;28;20200;-53
2021/08/04 13:21:23;;;;;;;;;;;25.30;96.20;;;;;;5103763;28;19927;-46
2021/08/04 13:23:49;;;;;;;;;;;25.30;96.30;;;;;;5105336;28;20238;-52
2021/08/04 13:26:18;;;;;;;;;;;25.30;96.20;;;;;;5105666;28;19912;-46
2021/08/04 13:28:47;;;;;;;;;;;25.30;96.20;;;;;;5105057;28;19976;-53
2021/08/04 13:31:18;;;;;;;;;;;25.30;96.30;;;;;;5106144;28;19962;-52
2021/08/04 13:33:47;;;;;;;;;;;25.40;96.20;;;;;;5105583;28;19971;-52
2021/08/04 13:36:13;;;;;;;;;;;25.40;96.20;;;;;;5105270;28;20088;-50
2021/08/04 13:38:40;;;;;;;;;;;25.40;96.20;;;;;;5104977;28;20231;-49
2021/08/04 13:41:06;;;;;;;;;;;25.40;96.30;;;;;;5103897;28;20134;-48
2021/08/04 13:43:32;;;;;;;;;;;25.40;96.40;;;;;;5100804;28;19908;-45
2021/08/04 13:45:59;;;;;;;;;;;25.40;96.30;;;;;;5105236;28;19912;-49
2021/08/04 13:48:25;;;;;;;;;;;25.40;96.30;;;;;;5104676;28;19904;-51
2021/08/04 13:50:53;;;;;;;;;;;25.40;96.40;;;;;;5105351;28;19915;-42
2021/08/04 13:53:20;;;;;;;;;;;25.50;96.50;;;;;;5104494;28;20156;-44
2021/08/04 13:55:46;;;;;;;;;;;25.50;96.50;;;;;;5104883;28;19983;-42
2021/08/04 13:58:13;;;;;;;;;;;25.50;96.40;;;;;;5102159;28;19904;-40
2021/08/04 14:00:40;;;;;;;;;;;25.50;96.40;;;;;;5104237;28;19912;-43
2021/08/04 14:03:06;;;;;;;;;;;25.50;96.50;;;;;;5104901;28;19908;-45
2021/08/04 14:05:38;;;;;;;;;;;25.50;96.40;;;;;;5101564;28;19919;-42
2021/08/04 14:08:08;;;;;;;;;;;25.50;96.50;;;;;;5102511;28;19948;-48
2021/08/04 14:10:35;;;;;;;;;;;25.50;96.60;;;;;;5102784;28;19963;-42
2021/08/04 14:13:02;;;;;;;;;;;25.50;96.40;;;;;;5102769;28;20189;-40
2021/08/04 14:15:28;;;;;;;;;;;25.60;96.20;;;;;;5104423;28;20243;-41
2021/08/04 14:17:54;;;;;;;;;;;25.60;96.20;;;;;;5104163;28;19904;-44
2021/08/04 14:20:21;;;;;;;;;;;25.60;96.30;;;;;;5101499;28;19920;-43
2021/08/04 14:22:50;;;;;;;;;;;25.60;96.40;;;;;;5103936;28;20796;-43
2021/08/04 14:25:18;;;;;;;;;;;25.60;96.50;;;;;;5104230;28;19940;-43